Time;durP1;ratioP1;P1;durP2;ratioP2;P2;SDS_P1;SDS_P2;PMS_P1;PMS_P2;Temp;Humidity;BMP_temperature;BMP_pressure;BME280_temperature;BME280_humidity;BME280_pressure;Samples;Min_cycle;Max_cycle;Signal;HPM_P1;HPM_P2
2020/12/27 00:02:25;;;;;;;8.88;4.65;;;;;;;-0.73;73.25;100007.00;1705125;84;21578;-63
2020/12/27 00:04:54;;;;;;;8.60;5.08;;;;;;;-0.70;73.21;100022.65;1698728;83;21275;-63
2020/12/27 00:07:22;;;;;;;9.80;5.58;;;;;;;-0.68;73.12;100025.14;1652386;86;21586;-63
2020/12/27 00:09:49;;;;;;;7.87;4.70;;;;;;;-0.65;73.03;100022.91;1636811;86;21595;-64
2020/12/27 00:12:17;;;;;;;8.65;5.28;;;;;;;-0.61;73.03;100013.49;1633390;86;21190;-63
2020/12/27 00:14:46;;;;;;;7.53;4.67;;;;;;;-0.62;73.08;100015.84;1648759;86;21190;-63
2020/12/27 00:17:14;;;;;;;9.45;5.47;;;;;;;-0.61;73.05;100022.85;1652832;86;21142;-63
2020/12/27 00:19:42;;;;;;;13.35;6.28;;;;;;;-0.60;73.01;100019.64;1638347;86;21236;-63
2020/12/27 00:22:10;;;;;;;8.93;5.10;;;;;;;-0.53;72.92;100021.36;1673715;84;21176;-64
2020/12/27 00:24:38;;;;;;;10.40;5.50;;;;;;;-0.55;72.95;100032.77;1670288;84;21274;-63
2020/12/27 00:27:05;;;;;;;9.15;5.20;;;;;;;-0.54;72.99;100029.08;1698128;84;21133;-64
2020/12/27 00:29:33;;;;;;;10.98;5.47;;;;;;;-0.51;72.96;100028.69;1628287;87;21569;-63
2020/12/27 00:32:01;;;;;;;10.63;5.60;;;;;;;-0.48;72.88;100027.47;1683725;84;21157;-63
2020/12/27 00:34:29;;;;;;;10.28;5.17;;;;;;;-0.50;72.69;100024.97;1683301;84;21192;-63
2020/12/27 00:36:57;;;;;;;8.28;5.10;;;;;;;-0.44;72.54;100020.72;1623909;87;21201;-63
2020/12/27 00:39:25;;;;;;;7.65;4.90;;;;;;;-0.43;72.61;100022.38;1680765;84;21552;-63
2020/12/27 00:42:01;;;;;;;7.62;4.37;;;;;;;-0.39;72.56;100024.95;1696517;84;21202;-63
2020/12/27 00:44:28;;;;;;;9.13;4.67;;;;;;;-0.34;72.48;100030.56;1681899;84;21134;-63
2020/12/27 00:46:56;;;;;;;8.63;4.35;;;;;;;-0.35;72.37;100030.74;1701180;84;21153;-64
2020/12/27 00:49:24;;;;;;;9.03;4.83;;;;;;;-0.29;72.42;100034.83;1668648;84;21162;-63
2020/12/27 00:51:52;;;;;;;7.53;5.10;;;;;;;-0.26;72.46;100037.63;1626782;88;21581;-63
2020/12/27 00:54:22;;;;;;;7.85;4.87;;;;;;;-0.19;72.23;100035.31;1685124;84;21311;-63
2020/12/27 00:56:50;;;;;;;7.83;4.33;;;;;;;-0.20;72.19;100045.69;1682490;84;21497;-63
2020/12/27 00:59:19;;;;;;;7.53;4.60;;;;;;;-0.13;71.99;100043.89;1689613;84;21613;-63
2020/12/27 01:01:47;;;;;;;8.95;4.58;;;;;;;-0.07;71.75;100043.61;1615161;88;21197;-63
2020/12/27 01:04:27;;;;;;;7.53;4.72;;;;;;;0.02;71.61;100037.60;1764551;79;22951;-62
2020/12/27 01:06:57;;;;;;;6.40;4.15;;;;;;;0.02;71.55;100046.46;1745297;82;21153;-63
2020/12/27 01:09:25;;;;;;;8.40;4.72;;;;;;;0.05;71.11;100042.55;1734761;82;21590;-63
2020/12/27 01:11:53;;;;;;;7.08;4.50;;;;;;;0.08;71.12;100036.81;1729225;82;21153;-62
2020/12/27 01:14:21;;;;;;;9.45;4.85;;;;;;;0.08;71.13;100032.80;1730076;82;21149;-62
2020/12/27 01:16:51;;;;;;;9.63;4.05;;;;;;;0.10;70.95;100031.59;1726339;82;21141;-62
2020/12/27 01:19:19;;;;;;;9.55;5.42;;;;;;;0.11;70.74;100037.23;1710280;83;21157;-62
2020/12/27 01:21:47;;;;;;;9.63;5.40;;;;;;;0.12;70.86;100036.23;1663717;85;21176;-62
2020/12/27 01:24:17;;;;;;;10.18;6.25;;;;;;;0.16;70.53;100035.32;1708307;84;21160;-62
2020/12/27 01:26:44;;;;;;;11.12;6.15;;;;;;;0.16;70.44;100033.98;1706331;84;21173;-62
2020/12/27 01:29:12;;;;;;;10.72;5.50;;;;;;;0.17;70.58;100043.67;1701994;84;21137;-62
2020/12/27 01:31:42;;;;;;;11.15;6.03;;;;;;;0.18;70.74;100052.03;1675058;84;21561;-62
2020/12/27 01:34:11;;;;;;;10.43;5.87;;;;;;;0.21;70.37;100047.11;1699408;84;21141;-62
2020/12/27 01:36:41;;;;;;;9.15;5.80;;;;;;;0.18;70.17;100053.37;1695492;84;21169;-62
2020/12/27 01:39:10;;;;;;;8.70;5.37;;;;;;;0.24;70.22;100056.59;1698790;84;21177;-62
2020/12/27 01:41:38;;;;;;;10.80;5.83;;;;;;;0.21;70.26;100057.81;1688778;84;21185;-62
2020/12/27 01:44:12;;;;;;;8.33;4.83;;;;;;;0.24;70.28;100056.59;1679687;84;21455;-62
2020/12/27 01:46:45;;;;;;;8.90;5.05;;;;;;;0.24;70.20;100065.45;1686824;84;21157;-63
2020/12/27 01:49:14;;;;;;;8.15;4.42;;;;;;;0.21;70.49;100066.36;1690575;84;21862;-62
2020/12/27 01:51:42;;;;;;;8.23;4.50;;;;;;;0.24;70.49;100061.94;1704206;84;21569;-62
2020/12/27 01:54:10;;;;;;;6.47;4.15;;;;;;;0.23;70.52;100073.67;1698843;84;21315;-62
2020/12/27 01:56:57;;;;;;;;;;;;;;;0.24;70.26;100069.47;1699940;84;21106;-62
2020/12/27 01:59:31;;;;;;;7.17;4.22;;;;;;;0.23;70.42;100081.70;1731098;82;20190;-62
2020/12/27 02:02:00;;;;;;;6.17;3.67;;;;;;;0.18;70.65;100086.30;1733166;82;21125;-62
2020/12/27 02:04:41;;;;;;;8.25;4.40;;;;;;;0.20;70.89;100084.27;1744981;79;23132;-63
2020/12/27 02:07:11;;;;;;;8.50;4.53;;;;;;;0.19;70.85;100079.92;1719533;83;21165;-62
2020/12/27 02:10:09;;;;;;;7.62;4.28;;;;;;;0.24;70.80;100079.34;1801500;78;23068;-63
2020/12/27 02:12:38;;;;;;;9.08;4.17;;;;;;;0.21;70.73;100077.90;1741657;81;21216;-63
2020/12/27 02:15:08;;;;;;;9.35;4.60;;;;;;;0.24;70.79;100071.31;1733285;81;21195;-63
2020/12/27 02:17:54;;;;;;;10.32;5.15;;;;;;;0.24;70.83;100078.84;1745284;81;21184;-63
2020/12/27 02:20:23;;;;;;;9.90;4.92;;;;;;;0.24;70.82;100074.82;1750982;81;21187;-62
2020/12/27 02:23:03;;;;;;;8.13;4.47;;;;;;;0.27;70.98;100077.61;1818540;79;22449;-62
2020/12/27 02:25:42;;;;;;;8.80;4.62;;;;;;;0.28;70.87;100088.14;1765383;80;21145;-63
2020/12/27 02:28:14;;;;;;;8.95;4.65;;;;;;;0.27;70.84;100090.49;1726144;80;21765;-63
2020/12/27 02:30:43;;;;;;;6.90;4.28;;;;;;;0.28;70.73;100092.66;1765433;80;21117;-63
2020/12/27 02:33:11;;;;;;;7.60;3.90;;;;;;;0.27;70.76;100095.84;1754997;82;21573;-62
2020/12/27 02:35:40;;;;;;;6.70;3.45;;;;;;;0.28;70.65;100107.39;1724498;81;21176;-62
2020/12/27 02:38:09;;;;;;;7.62;3.72;;;;;;;0.31;70.45;100102.47;1730376;81;21734;-63
2020/12/27 02:40:37;;;;;;;8.03;3.90;;;;;;;0.33;70.36;100104.42;1754127;80;21173;-63
2020/12/27 02:43:25;;;;;;;7.25;3.83;;;;;;;0.11;70.31;100068.02;1838011;78;22621;-62
2020/12/27 02:45:55;;;;;;;8.88;4.30;;;;;;;0.34;70.41;100110.10;1730252;82;21510;-62
2020/12/27 02:48:41;;;;;;;7.37;4.17;;;;;;;0.31;70.53;100115.86;1674834;84;21178;-63
2020/12/27 02:51:12;;;;;;;6.08;4.00;;;;;;;0.32;70.56;100118.03;1681158;84;21823;-63
2020/12/27 02:53:40;;;;;;;6.00;3.10;;;;;;;0.29;70.78;100120.56;1701550;83;21563;-63
2020/12/27 02:56:08;;;;;;;8.65;4.28;;;;;;;0.35;70.61;100124.33;1693845;83;21235;-63
2020/12/27 02:58:36;;;;;;;6.10;3.67;;;;;;;0.33;70.63;100115.64;1729103;82;21133;-63
2020/12/27 03:01:04;;;;;;;7.17;3.70;;;;;;;0.38;70.63;100122.59;1690087;82;22062;-63
2020/12/27 03:03:50;;;;;;;6.12;3.62;;;;;;;0.37;70.27;100122.27;1707281;82;21152;-63
2020/12/27 03:06:22;;;;;;;6.03;3.30;;;;;;;0.35;70.49;100138.55;1702189;82;21145;-63
2020/12/27 03:08:54;;;;;;;5.53;3.10;;;;;;;0.37;70.51;100135.15;1714036;83;21588;-63
2020/12/27 03:11:39;;;;;;;;;;;;;;;0.35;70.57;100139.89;1698324;82;21150;-63
2020/12/27 03:14:08;;;;;;;;;;;;;;;0.37;70.51;100145.03;1714569;84;20177;-63
2020/12/27 03:16:38;;;;;;;5.85;3.40;;;;;;;0.29;70.74;100144.66;1700034;82;20264;-64
2020/12/27 03:19:14;;;;;;;6.92;4.05;;;;;;;0.26;71.09;100145.06;1779555;79;28696;-62
2020/12/27 03:21:49;;;;;;;6.17;3.65;;;;;;;0.56;70.43;100150.20;1758020;81;21200;-62
2020/12/27 03:24:19;;;;;;;5.60;3.17;;;;;;;0.72;69.83;100158.74;1755201;81;21160;-63
2020/12/27 03:26:47;;;;;;;6.40;3.27;;;;;;;0.69;69.73;100151.10;1720101;83;21173;-62
2020/12/27 03:29:16;;;;;;;5.62;2.95;;;;;;;0.61;69.96;100151.25;1710837;83;21197;-62
2020/12/27 03:31:43;;;;;;;4.65;2.87;;;;;;;0.58;70.05;100145.46;1681765;84;21156;-63
2020/12/27 03:34:14;;;;;;;5.05;3.35;;;;;;;0.55;70.14;100154.73;1694132;84;21565;-63
2020/12/27 03:36:47;;;;;;;5.60;3.42;;;;;;;0.50;70.30;100152.63;1694890;82;21290;-63
2020/12/27 03:39:29;;;;;;;5.67;2.62;;;;;;;0.45;70.53;100156.94;1706325;82;21683;-63
2020/12/27 03:42:00;;;;;;;6.33;3.40;;;;;;;0.44;70.54;100157.44;1708323;84;21547;-63
2020/12/27 03:44:39;;;;;;;5.42;3.15;;;;;;;0.44;70.73;100152.09;1772105;79;22947;-62
2020/12/27 03:47:25;;;;;;;7.83;3.52;;;;;;;0.44;70.68;100165.48;1716902;83;21153;-63
2020/12/27 03:50:02;;;;;;;6.22;4.20;;;;;;;0.44;70.78;100169.50;1785934;79;28241;-63
2020/12/27 03:52:35;;;;;;;6.55;3.52;;;;;;;0.73;70.12;100176.99;1744445;80;21304;-63
2020/12/27 03:55:14;;;;;;;7.10;4.30;;;;;;;0.92;69.58;100174.94;1794076;79;22433;-63
2020/12/27 03:57:47;;;;;;;7.35;4.28;;;;;;;0.73;69.87;100175.65;1755684;81;21165;-62
2020/12/27 04:00:36;;;;;;;7.30;3.98;;;;;;;0.66;70.10;100175.62;1795117;79;22589;-62
2020/12/27 04:03:06;;;;;;;6.05;3.58;;;;;;;0.56;70.22;100172.47;1777428;80;21156;-62
2020/12/27 04:05:35;;;;;;;7.45;4.15;;;;;;;0.56;70.16;100181.02;1769938;80;21149;-62
2020/12/27 04:08:03;;;;;;;6.67;4.17;;;;;;;0.50;70.23;100182.61;1778616;80;21565;-63
2020/12/27 04:10:31;;;;;;;9.95;4.60;;;;;;;0.51;70.31;100184.27;1776963;80;21121;-63
2020/12/27 04:12:59;;;;;;;8.53;4.10;;;;;;;0.48;70.44;100184.16;1770688;80;21152;-63
2020/12/27 04:15:29;;;;;;;7.75;4.08;;;;;;;0.49;70.35;100193.03;1749263;81;21187;-62
2020/12/27 04:18:01;;;;;;;9.03;5.05;;;;;;;0.46;70.48;100182.70;1772658;80;21121;-61
2020/12/27 04:20:31;;;;;;;8.90;5.20;;;;;;;0.45;70.59;100188.57;1775391;80;21209;-63
2020/12/27 04:22:59;;;;;;;9.48;5.08;;;;;;;0.46;70.60;100182.70;1758119;80;21593;-63
2020/12/27 04:25:28;;;;;;;9.03;5.10;;;;;;;0.44;70.62;100177.53;1760555;80;21181;-62
2020/12/27 04:27:56;;;;;;;9.73;5.20;;;;;;;0.41;70.79;100185.13;1790546;80;21113;-62
2020/12/27 04:30:23;;;;;;;9.28;5.53;;;;;;;0.41;70.73;100184.62;1769895;80;21145;-62
2020/12/27 04:33:00;;;;;;;12.80;7.35;;;;;;;0.44;70.85;100194.95;1796621;78;28840;-61
2020/12/27 04:35:29;;;;;;;12.20;6.20;;;;;;;0.72;70.27;100204.30;1765703;80;21147;-62
2020/12/27 04:37:57;;;;;;;11.08;5.87;;;;;;;0.90;69.75;100208.63;1724241;83;21598;-62
2020/12/27 04:40:30;;;;;;;8.15;4.30;;;;;;;0.83;70.00;100208.28;1690826;83;21193;-62
2020/12/27 04:42:58;;;;;;;8.60;5.10;;;;;;;0.80;69.94;100212.19;1705863;83;21166;-62
2020/12/27 04:45:31;;;;;;;6.85;4.12;;;;;;;0.73;70.14;100215.34;1677691;83;21175;-62
2020/12/27 04:48:03;;;;;;;6.37;3.47;;;;;;;0.62;70.45;100210.52;1679308;84;21188;-62
2020/12/27 04:50:43;;;;;;;7.40;3.67;;;;;;;0.57;70.82;100211.61;1791978;79;22544;-62
2020/12/27 04:53:12;;;;;;;6.65;3.67;;;;;;;0.45;71.20;100218.55;1759820;80;21122;-62
2020/12/27 04:55:42;;;;;;;5.05;3.37;;;;;;;0.42;71.48;100229.66;1751227;80;21151;-62
2020/12/27 04:58:22;;;;;;;6.25;3.87;;;;;;;0.35;71.80;100226.92;1756235;81;21608;-62
2020/12/27 05:01:00;;;;;;;6.10;3.92;;;;;;;0.37;71.99;100219.52;1776055;77;23462;-63
2020/12/27 05:03:35;;;;;;;7.92;4.17;;;;;;;0.32;72.12;100217.91;1719083;81;21184;-62
2020/12/27 05:06:03;;;;;;;7.45;4.17;;;;;;;0.31;72.18;100226.99;1757856;80;21171;-62
2020/12/27 05:08:31;;;;;;;6.62;4.20;;;;;;;0.26;72.37;100222.71;1757565;80;21631;-63
2020/12/27 05:11:02;;;;;;;8.38;4.50;;;;;;;0.28;72.31;100227.89;1752911;80;21160;-62
2020/12/27 05:13:31;;;;;;;8.28;5.03;;;;;;;0.28;72.46;100235.92;1777962;80;21696;-62
2020/12/27 05:16:10;;;;;;;9.33;4.10;;;;;;;0.38;72.48;100231.89;1788736;79;22920;-62
2020/12/27 05:18:39;;;;;;;9.05;4.95;;;;;;;0.37;72.42;100231.56;1757438;80;21153;-62
2020/12/27 05:21:07;;;;;;;8.10;4.92;;;;;;;0.17;72.24;100197.11;1760445;80;21180;-63
2020/12/27 05:23:36;;;;;;;8.63;5.30;;;;;;;0.35;72.30;100237.64;1681353;83;21157;-63
2020/12/27 05:26:11;;;;;;;10.63;5.90;;;;;;;0.36;72.28;100238.44;1714760;83;21175;-63
2020/12/27 05:28:50;;;;;;;12.20;6.58;;;;;;;0.29;72.42;100242.41;1723820;83;21177;-63
2020/12/27 05:31:39;;;;;;;11.57;6.85;;;;;;;0.34;72.48;100242.67;1774599;79;23060;-63
2020/12/27 05:34:30;;;;;;;8.60;5.33;;;;;;;0.34;72.49;100248.53;1727533;82;21299;-63
2020/12/27 05:37:17;;;;;;;8.70;5.53;;;;;;;0.35;72.54;100251.53;1724055;80;21125;-63
2020/12/27 05:40:06;;;;;;;9.00;5.47;;;;;;;0.35;72.69;100255.55;1740341;82;21608;-62
2020/12/27 05:42:43;;;;;;;10.00;5.72;;;;;;;0.36;72.73;100267.90;1728362;82;21133;-63
2020/12/27 05:45:15;;;;;;;9.33;6.15;;;;;;;0.49;72.45;100268.86;1685037;82;22033;-63
2020/12/27 05:47:46;;;;;;;8.15;4.70;;;;;;;0.44;72.55;100277.14;1724564;82;21165;-63
2020/12/27 05:50:18;;;;;;;7.58;4.83;;;;;;;0.38;72.73;100280.09;1752482;82;21173;-62
2020/12/27 05:52:48;;;;;;;8.93;5.22;;;;;;;0.37;72.86;100288.31;1740650;82;21275;-62
2020/12/27 05:55:20;;;;;;;8.80;4.30;;;;;;;0.44;72.84;100293.22;1743267;82;21211;-63
2020/12/27 05:57:54;;;;;;;7.87;4.28;;;;;;;0.43;72.84;100299.08;1750030;82;21153;-63
2020/12/27 06:00:24;;;;;;;11.00;4.50;;;;;;;0.43;72.73;100310.30;1730390;82;21970;-63
2020/12/27 06:03:00;;;;;;;6.47;4.15;;;;;;;0.35;73.00;100305.09;1734361;82;21789;-62
2020/12/27 06:05:57;;;;;;;7.45;4.35;;;;;;;0.37;73.07;100313.25;1675349;85;21591;-63
2020/12/27 06:09:08;;;;;;;6.95;4.40;;;;;;;0.39;73.23;100317.09;1753084;79;23115;-62
2020/12/27 06:11:54;;;;;;;8.55;3.95;;;;;;;0.35;73.32;100325.19;1682287;83;21633;-64
2020/12/27 06:14:37;;;;;;;6.78;3.65;;;;;;;0.45;73.23;100329.70;1663800;85;21144;-63
2020/12/27 06:17:20;;;;;;;8.33;4.75;;;;;;;0.43;73.23;100335.75;1648966;87;21195;-64
2020/12/27 06:20:07;;;;;;;7.58;4.33;;;;;;;0.36;73.69;100342.89;1757521;79;22891;-64
2020/12/27 06:22:42;;;;;;;6.83;4.17;;;;;;;0.28;73.94;100339.86;1688587;83;21167;-63
2020/12/27 06:25:35;;;;;;;9.40;4.90;;;;;;;0.33;73.93;100348.13;1759021;79;23186;-64
2020/12/27 06:28:03;;;;;;;8.05;5.00;;;;;;;0.30;74.01;100353.03;1728317;82;21316;-64
2020/12/27 06:30:36;;;;;;;8.20;4.87;;;;;;;0.40;73.90;100357.56;1719820;83;21157;-64
2020/12/27 06:33:18;;;;;;;7.78;4.85;;;;;;;0.41;73.99;100360.57;1789487;79;22621;-62
2020/12/27 06:35:46;;;;;;;8.53;5.30;;;;;;;0.33;74.07;100370.05;1762769;80;21161;-62
2020/12/27 06:38:20;;;;;;;9.63;5.65;;;;;;;0.33;73.95;100364.70;1782833;80;21175;-63
2020/12/27 06:41:06;;;;;;;8.15;5.03;;;;;;;0.29;74.10;100375.47;1765420;80;21141;-63
2020/12/27 06:43:45;;;;;;;;;;;;;;;0.37;74.00;100369.50;1703024;81;21177;-63
2020/12/27 06:46:27;;;;;;;12.15;7.35;;;;;;;0.45;73.85;100367.20;1734105;81;20448;-63
2020/12/27 06:49:16;;;;;;;11.57;7.72;;;;;;;0.42;74.17;100360.39;1792940;78;23338;-61
2020/12/27 06:51:52;;;;;;;11.75;6.83;;;;;;;0.39;74.00;100365.30;1723905;82;21269;-59
2020/12/27 06:54:42;;;;;;;11.20;6.60;;;;;;;0.42;73.86;100372.95;1750478;80;21181;-61
2020/12/27 06:57:32;;;;;;;9.98;6.30;;;;;;;0.45;73.94;100365.36;1757697;81;21196;-60
2020/12/27 07:00:28;;;;;;;10.60;5.90;;;;;;;0.57;73.71;100375.57;1705309;83;21769;-60
2020/12/27 07:03:18;;;;;;;9.40;6.03;;;;;;;0.58;73.74;100385.25;1778769;79;22916;-61
2020/12/27 07:05:47;;;;;;;11.57;6.17;;;;;;;0.53;73.51;100376.97;1730319;82;21634;-61
2020/12/27 07:08:17;;;;;;;10.15;6.28;;;;;;;0.58;73.40;100386.59;1722230;83;21149;-61
2020/12/27 07:10:50;;;;;;;9.60;5.37;;;;;;;0.60;73.17;100385.90;1722587;82;21733;-61
2020/12/27 07:13:18;;;;;;;10.98;6.12;;;;;;;0.69;73.07;100390.09;1707114;83;21165;-61
2020/12/27 07:15:54;;;;;;;10.05;6.00;;;;;;;0.68;73.15;100390.59;1636333;87;21307;-61
2020/12/27 07:18:23;;;;;;;7.97;5.40;;;;;;;0.68;73.17;100391.11;1658750;85;21159;-60
2020/12/27 07:20:58;;;;;;;9.18;6.10;;;;;;;0.74;72.92;100395.22;1720140;83;21200;-61
2020/12/27 07:23:30;;;;;;;11.25;6.35;;;;;;;0.73;72.90;100396.23;1722375;82;21521;-61
2020/12/27 07:26:00;;;;;;;8.35;5.53;;;;;;;0.73;72.74;100394.89;1682230;85;21169;-61
2020/12/27 07:28:28;;;;;;;10.15;6.28;;;;;;;0.69;73.03;100396.29;1650700;87;21192;-61
2020/12/27 07:30:58;;;;;;;11.10;6.00;;;;;;;0.74;73.04;100403.25;1655907;86;21211;-61
2020/12/27 07:33:37;;;;;;;10.90;6.92;;;;;;;0.74;73.16;100403.77;1656390;85;21181;-61
2020/12/27 07:36:09;;;;;;;11.20;6.70;;;;;;;0.77;72.97;100404.20;1673258;85;21177;-61
2020/12/27 07:38:56;;;;;;;12.07;7.45;;;;;;;0.77;73.06;100402.03;1677325;85;21161;-60
2020/12/27 07:41:24;;;;;;;11.15;6.92;;;;;;;0.90;72.66;100402.14;1667672;85;21243;-61
2020/12/27 07:43:52;;;;;;;13.45;7.67;;;;;;;0.90;72.23;100404.83;1658720;85;21168;-60
2020/12/27 07:46:20;;;;;;;12.37;8.25;;;;;;;0.80;72.45;100414.54;1678080;85;21246;-61
2020/12/27 07:48:49;;;;;;;12.75;7.78;;;;;;;0.76;72.66;100408.41;1670425;85;21188;-60
2020/12/27 07:51:23;;;;;;;11.12;7.05;;;;;;;0.80;72.65;100413.20;1675386;85;21665;-61
2020/12/27 07:53:55;;;;;;;8.25;5.75;;;;;;;0.78;72.60;100407.72;1663734;85;21181;-61
2020/12/27 07:56:25;;;;;;;12.58;6.45;;;;;;;0.87;72.46;100407.89;1661033;85;21257;-61
2020/12/27 07:58:56;;;;;;;18.32;10.05;;;;;;;0.90;72.28;100412.86;1677464;85;21191;-61
2020/12/27 08:01:27;;;;;;;19.10;13.90;;;;;;;0.83;72.48;100407.45;1666057;85;21849;-61
2020/12/27 08:04:03;;;;;;;15.68;10.05;;;;;;;0.82;72.48;100420.52;1670782;86;21147;-61
2020/12/27 08:06:32;;;;;;;13.30;7.60;;;;;;;0.86;72.56;100434.38;1667778;86;21315;-61
2020/12/27 08:09:10;;;;;;;16.42;9.00;;;;;;;0.89;72.48;100432.13;1653010;86;21153;-61
2020/12/27 08:11:39;;;;;;;19.77;10.95;;;;;;;0.90;72.52;100434.31;1656353;86;21676;-60
2020/12/27 08:14:09;;;;;;;19.17;10.35;;;;;;;0.93;72.43;100431.23;1657373;84;21177;-60
2020/12/27 08:16:41;;;;;;;25.90;12.43;;;;;;;0.94;72.31;100438.27;1653633;85;21149;-60
2020/12/27 08:19:17;;;;;;;15.48;7.28;;;;;;;1.07;71.97;100440.22;1649910;86;21177;-61
2020/12/27 08:21:45;;;;;;;46.05;18.10;;;;;;;1.06;72.06;100446.13;1646846;86;21248;-60
2020/12/27 08:24:16;;;;;;;30.20;11.70;;;;;;;1.04;72.17;100456.70;1658434;86;21197;-60
2020/12/27 08:26:46;;;;;;;30.08;12.18;;;;;;;1.06;72.04;100456.02;1670557;86;21177;-61
2020/12/27 08:29:24;;;;;;;24.90;11.48;;;;;;;1.23;71.71;100460.08;1667782;86;21724;-61
2020/12/27 08:31:53;;;;;;;20.27;9.43;;;;;;;1.26;71.54;100461.03;1659658;86;21197;-63
2020/12/27 08:34:24;;;;;;;16.12;8.38;;;;;;;1.27;71.74;100449.28;1666303;86;21186;-62
2020/12/27 08:36:53;;;;;;;24.40;10.55;;;;;;;1.26;71.68;100447.11;1655235;86;21193;-61
2020/12/27 08:39:54;;;;;;;21.65;8.88;;;;;;;1.37;71.35;100439.88;1662768;86;21207;-61
2020/12/27 08:42:36;;;;;;;21.50;9.73;;;;;;;1.47;70.90;100438.18;1670754;85;21172;-61
2020/12/27 08:46:52;;;;;;;9.03;5.58;;;;;;;1.43;70.74;100431.03;1828329;77;22693;-61
2020/12/27 08:49:47;;;;;;;9.53;5.72;;;;;;;1.33;70.76;100427.88;1793426;79;21567;-60
2020/12/27 08:52:23;;;;;;;8.93;5.75;;;;;;;1.35;70.67;100435.20;1740658;80;21155;-61
2020/12/27 08:55:05;;;;;;;10.03;5.83;;;;;;;1.42;70.88;100427.19;1765034;80;21179;-61
2020/12/27 08:57:33;;;;;;;9.63;5.60;;;;;;;1.59;70.77;100417.01;1696093;84;21150;-61
2020/12/27 09:00:07;;;;;;;9.80;5.85;;;;;;;1.71;70.30;100402.82;1682569;84;21228;-60
2020/12/27 09:02:35;;;;;;;10.98;6.72;;;;;;;1.81;69.96;100401.94;1742318;82;21157;-62
2020/12/27 09:05:11;;;;;;;11.53;7.17;;;;;;;1.87;69.68;100405.20;1707401;84;21410;-62
2020/12/27 09:07:44;;;;;;;9.90;5.72;;;;;;;1.94;69.69;100407.91;1686898;84;21522;-62
2020/12/27 09:10:23;;;;;;;11.53;6.62;;;;;;;2.14;68.63;100405.29;1710580;83;21148;-62
2020/12/27 09:13:12;;;;;;;7.12;4.35;;;;;;;2.23;68.49;100408.12;1722990;82;21184;-62
2020/12/27 09:15:46;;;;;;;9.95;6.42;;;;;;;2.30;68.13;100401.72;1719057;82;21171;-62
2020/12/27 09:18:16;;;;;;;9.13;6.10;;;;;;;2.25;68.10;100412.27;1715900;82;21692;-62
2020/12/27 09:20:45;;;;;;;8.20;5.35;;;;;;;2.33;68.21;100408.57;1707869;82;21192;-61
2020/12/27 09:23:18;;;;;;;9.33;5.92;;;;;;;2.40;67.84;100410.77;1733626;82;21188;-62
2020/12/27 09:25:47;;;;;;;9.23;6.08;;;;;;;2.46;67.65;100403.23;1729406;82;21201;-62
2020/12/27 09:28:21;;;;;;;8.98;5.95;;;;;;;2.56;67.42;100402.31;1706841;84;21168;-62
2020/12/27 09:31:05;;;;;;;9.73;6.17;;;;;;;2.63;67.13;100402.32;1725045;82;21192;-62
2020/12/27 09:33:36;;;;;;;9.40;6.33;;;;;;;2.72;66.49;100391.70;1707345;84;21172;-62
2020/12/27 09:36:05;;;;;;;9.75;6.78;;;;;;;2.75;66.17;100394.81;1707345;84;21546;-62
2020/12/27 09:38:39;;;;;;;12.13;7.83;;;;;;;2.83;66.06;100401.34;1707392;84;21176;-62
2020/12/27 09:41:10;;;;;;;15.25;10.15;;;;;;;2.82;65.65;100401.53;1723786;82;21172;-62
2020/12/27 09:43:58;;;;;;;15.90;9.60;;;;;;;2.83;65.83;100409.41;1734240;82;21113;-62
2020/12/27 09:49:29;;;;;;;11.12;7.15;;;;;;;2.90;65.53;100412.10;1774869;79;23012;-61
2020/12/27 09:52:12;;;;;;;10.25;6.62;;;;;;;2.83;65.64;100413.95;1701564;83;21175;-61
2020/12/27 09:54:41;;;;;;;10.20;7.08;;;;;;;2.83;65.85;100416.64;1694323;83;21190;-61
2020/12/27 09:57:13;;;;;;;10.13;6.45;;;;;;;2.87;65.02;100417.35;1694673;83;21166;-61
2020/12/27 09:59:42;;;;;;;8.95;5.97;;;;;;;2.92;65.24;100424.30;1651020;87;21230;-61
2020/12/27 10:02:10;;;;;;;13.25;7.78;;;;;;;2.91;64.07;100421.80;1672565;85;21320;-61
2020/12/27 10:04:38;;;;;;;9.25;6.08;;;;;;;2.90;64.22;100419.66;1650516;87;21203;-60
2020/12/27 10:07:06;;;;;;;10.68;6.72;;;;;;;2.88;64.59;100427.09;1650455;87;21152;-60
2020/12/27 10:09:34;;;;;;;10.75;7.30;;;;;;;3.01;64.57;100427.09;1651306;85;21200;-61
2020/12/27 10:12:02;;;;;;;10.95;7.65;;;;;;;3.06;64.33;100431.86;1651292;85;21708;-61
2020/12/27 10:14:30;;;;;;;12.20;8.50;;;;;;;2.98;64.96;100421.30;1650853;87;21234;-60
2020/12/27 10:17:00;;;;;;;11.68;6.85;;;;;;;2.95;65.07;100420.36;1661370;86;21184;-60
2020/12/27 10:19:28;;;;;;;17.05;10.18;;;;;;;2.88;65.15;100419.02;1661568;85;21253;-60
2020/12/27 10:21:56;;;;;;;10.48;7.22;;;;;;;2.60;65.89;100383.92;1670900;85;21522;-61
2020/12/27 10:24:26;;;;;;;14.40;8.18;;;;;;;2.68;65.58;100420.86;1690170;85;21742;-60
2020/12/27 10:26:53;;;;;;;14.55;8.75;;;;;;;2.60;65.85;100414.83;1690378;85;21183;-60
2020/12/27 10:29:21;;;;;;;12.07;7.35;;;;;;;2.60;65.41;100412.14;1676570;85;21176;-61
2020/12/27 10:31:57;;;;;;;13.45;7.62;;;;;;;2.55;65.49;100408.71;1667031;85;21184;-61
2020/12/27 10:34:25;;;;;;;8.90;6.37;;;;;;;2.56;65.54;100409.55;1683240;84;21201;-60
2020/12/27 10:36:54;;;;;;;10.70;6.08;;;;;;;2.57;65.59;100414.73;1673608;85;21161;-61
2020/12/27 10:39:22;;;;;;;12.18;7.20;;;;;;;2.67;65.20;100414.33;1666972;85;21181;-61
2020/12/27 10:41:50;;;;;;;15.72;10.60;;;;;;;2.72;64.98;100401.11;1663499;85;21214;-61
2020/12/27 10:44:18;;;;;;;14.28;10.15;;;;;;;2.69;65.44;100401.53;1655680;86;21225;-62
2020/12/27 10:46:46;;;;;;;13.45;9.65;;;;;;;2.68;65.91;100391.28;1657020;85;21153;-61
2020/12/27 10:49:14;;;;;;;15.38;9.75;;;;;;;2.70;65.62;100391.89;1636513;87;21671;-61
2020/12/27 10:51:42;;;;;;;10.18;7.22;;;;;;;2.67;65.83;100388.28;1641645;87;21196;-61
2020/12/27 10:54:11;;;;;;;10.65;6.65;;;;;;;2.59;64.70;100389.80;1641418;87;21217;-61
2020/12/27 10:56:44;;;;;;;12.00;7.05;;;;;;;2.49;65.06;100382.14;1584187;89;21200;-61
2020/12/27 10:59:14;;;;;;;10.35;7.00;;;;;;;2.40;65.16;100379.86;1702798;84;21192;-61
2020/12/27 11:01:46;;;;;;;24.70;11.00;;;;;;;2.31;65.25;100367.62;1713991;84;21146;-61
2020/12/27 11:04:14;;;;;;;26.42;11.10;;;;;;;2.27;65.58;100380.64;1714025;84;21169;-61
2020/12/27 11:06:41;;;;;;;17.32;8.58;;;;;;;2.26;65.63;100380.34;1695156;84;21161;-61
2020/12/27 11:09:10;;;;;;;11.00;7.25;;;;;;;2.28;65.45;100379.62;1686179;84;21181;-61
2020/12/27 11:11:38;;;;;;;9.10;5.78;;;;;;;2.28;65.32;100383.64;1691632;84;21173;-61
2020/12/27 11:14:07;;;;;;;28.87;13.08;;;;;;;2.28;64.39;100376.93;1630936;87;21241;-61
2020/12/27 11:16:34;;;;;;;34.10;14.98;;;;;;;2.30;64.66;100376.73;1685378;84;21566;-61
2020/12/27 11:19:02;;;;;;;13.20;7.85;;;;;;;2.29;64.72;100373.22;1686953;84;21193;-61
2020/12/27 11:21:32;;;;;;;9.80;6.70;;;;;;;2.27;64.63;100381.98;1638042;87;21697;-61
2020/12/27 11:23:59;;;;;;;9.48;5.90;;;;;;;2.29;63.98;100377.25;1686159;84;21217;-62
2020/12/27 11:26:27;;;;;;;10.40;5.62;;;;;;;2.43;61.85;100367.36;1685375;85;21222;-61
2020/12/27 11:28:55;;;;;;;6.33;3.60;;;;;;;2.54;59.12;100384.74;1637581;87;21222;-61
2020/12/27 11:31:24;;;;;;;4.17;2.00;;;;;;;2.72;57.65;100380.44;1651589;86;21159;-61
2020/12/27 11:33:52;;;;;;;7.85;3.77;;;;;;;2.84;56.54;100379.28;1638225;87;21721;-61
2020/12/27 11:36:20;;;;;;;5.55;2.85;;;;;;;2.99;56.43;100375.89;1674891;84;21202;-61
2020/12/27 11:38:47;;;;;;;6.67;2.55;;;;;;;2.98;55.48;100378.26;1685565;85;21205;-61
2020/12/27 11:41:16;;;;;;;6.62;3.33;;;;;;;2.92;55.18;100388.51;1686328;84;21218;-61
2020/12/27 11:43:43;;;;;;;6.17;2.95;;;;;;;2.70;55.61;100385.69;1713812;84;21189;-61
2020/12/27 11:46:12;;;;;;;13.45;6.87;;;;;;;2.51;56.88;100387.33;1714015;82;21182;-61
2020/12/27 11:48:41;;;;;;;8.45;4.90;;;;;;;2.36;57.01;100385.33;1710049;83;21637;-61
2020/12/27 11:51:09;;;;;;;9.98;5.72;;;;;;;2.25;57.29;100383.22;1708785;82;21311;-61
2020/12/27 11:53:39;;;;;;;8.10;4.70;;;;;;;2.09;57.42;100391.11;1709575;84;21174;-61
2020/12/27 11:56:07;;;;;;;8.68;4.30;;;;;;;1.98;58.90;100385.80;1676391;85;21165;-61
2020/12/27 11:58:36;;;;;;;9.20;5.00;;;;;;;1.93;59.88;100375.36;1680630;85;21201;-61
2020/12/27 12:01:04;;;;;;;7.03;3.62;;;;;;;1.84;60.37;100380.60;1700374;84;21203;-61